Time;durP1;ratioP1;P1;durP2;ratioP2;P2;SDS_P1;SDS_P2;PMS_P1;PMS_P2;Temp;Humidity;BMP_temperature;BMP_pressure;BME280_temperature;BME280_humidity;BME280_pressure;Samples;Min_cycle;Max_cycle;Signal;HPM_P1;HPM_P2
2023/08/18 05:16:16;;;;;;;;;;;;;;;;;;1482607;26;19929;-43
2023/08/18 05:18:42;;;;;;;;;;;;;;;;;;5010649;28;20427;-46
2023/08/18 05:21:08;;;;;;;;;;;;;;;;;;5010586;28;20040;-48
2023/08/18 05:23:34;;;;;;;;;;;;;;;;;;5010492;28;19962;-45
2023/08/18 05:26:00;;;;;;;;;;;;;;;;;;5010016;28;19992;-43
2023/08/18 05:28:29;;;;;;;;;;;;;;;;;;5010485;28;19964;-44
2023/08/18 05:30:55;;;;;;;;;;;;;;;;;;5009979;28;20326;-44
2023/08/18 05:33:21;;;;;;;;;;;;;;;;;;5009603;28;19910;-44
2023/08/18 05:35:47;;;;;;;;;;;;;;;;;;5010006;28;19909;-42
2023/08/18 05:38:13;;;;;;;;;;;;;;;;;;5010380;28;19914;-44
2023/08/18 05:40:39;;;;;;;;;;;;;;;;;;5010542;28;20447;-43
2023/08/18 05:43:05;;;;;;;;;;;;;;;;;;5010102;28;19952;-44
2023/08/18 05:45:30;;;;;;;;;;;;;;;;;;5009750;28;19910;-44
2023/08/18 05:47:57;;;;;;;;;;;;;;;;;;5010075;28;19914;-44
2023/08/18 05:50:23;;;;;;;;;;;;;;;;;;5010048;28;20277;-44
2023/08/18 05:52:49;;;;;;;;;;;;;;;;;;5009959;28;19967;-43
2023/08/18 05:55:15;;;;;;;;;;;;;;;;;;5009888;28;19917;-45
2023/08/18 05:57:41;;;;;;;;;;;;;;;;;;5010324;28;19916;-44
2023/08/18 06:00:10;;;;;;;;;;;;;;;;;;5009868;28;19909;-44
2023/08/18 06:02:36;;;;;;;;;;;;;;;;;;5009713;28;20004;-45
2023/08/18 06:05:02;;;;;;;;;;;;;;;;;;5009769;28;20000;-45
2023/08/18 06:07:27;;;;;;;;;;;;;;;;;;5009787;28;19914;-43
2023/08/18 06:09:53;;;;;;;;;;;;;;;;;;5009748;28;20380;-44
2023/08/18 06:12:19;;;;;;;;;;;;;;;;;;5009797;28;19997;-44
2023/08/18 06:14:45;;;;;;;;;;;;;;;;;;5009766;28;19910;-43
2023/08/18 06:17:11;;;;;;;;;;;;;;;;;;5009617;28;19917;-43
2023/08/18 06:19:37;;;;;;;;;;;;;;;;;;5009907;28;19960;-43
2023/08/18 06:22:03;;;;;;;;;;;;;;;;;;5009435;28;19917;-45
2023/08/18 06:24:29;;;;;;;;;;;;;;;;;;5009652;28;19909;-44
2023/08/18 06:26:54;;;;;;;;;;;;;;;;;;5009302;28;20360;-44
2023/08/18 06:29:20;;;;;;;;;;;;;;;;;;5009758;28;19948;-46
2023/08/18 06:31:46;;;;;;;;;;;;;;;;;;5009004;28;20298;-44
2023/08/18 06:34:12;;;;;;;;;;;;;;;;;;5009981;28;19913;-44
2023/08/18 06:36:38;;;;;;;;;;;;;;;;;;5009461;28;19905;-43
2023/08/18 06:39:04;;;;;;;;;;;;;;;;;;5009541;28;20000;-43
2023/08/18 06:41:30;;;;;;;;;;;;;;;;;;5009419;28;19932;-42
2023/08/18 06:43:56;;;;;;;;;;;;;;;;;;5010205;28;19937;-43
2023/08/18 06:46:22;;;;;;;;;;;;;;;;;;5014145;28;20362;-43
2023/08/18 06:48:47;;;;;;;;;;;;;;;;;;5007504;28;19914;-42
2023/08/18 06:51:13;;;;;;;;;;;;;;;;;;4994883;28;20033;-43
2023/08/18 06:53:39;;;;;;;;;;;;;;;;;;4994895;28;20391;-42
2023/08/18 06:56:05;;;;;;;;;;;;;;;;;;4994379;28;19914;-44
2023/08/18 06:58:31;;;;;;;;;;;;;;;;;;4994801;28;19910;-44
2023/08/18 07:00:57;;;;;;;;;;;;;;;;;;5002452;28;20379;-44
2023/08/18 07:03:23;;;;;;;;;;;;;;;;;;5014222;28;19913;-43
2023/08/18 07:05:49;;;;;;;;;;;;;;;;;;5014068;28;19909;-43
2023/08/18 07:08:15;;;;;;;;;;;;;;;;;;5012259;28;20016;-42
2023/08/18 07:10:42;;;;;;;;;;;;;;;;;;5014222;28;19909;-43
2023/08/18 07:13:07;;;;;;;;;;;;;;;;;;5013871;28;19989;-43
2023/08/18 07:15:33;;;;;;;;;;;;;;;;;;5013914;28;19949;-44
2023/08/18 07:17:59;;;;;;;;;;;;;;;;;;5013633;28;19952;-43
2023/08/18 07:20:25;;;;;;;;;;;;;;;;;;5014070;28;20303;-44
2023/08/18 07:22:51;;;;;;;;;;;;;;;;;;5013578;28;19910;-44
2023/08/18 07:25:17;;;;;;;;;;;;;;;;;;5013865;28;19917;-45
2023/08/18 07:27:43;;;;;;;;;;;;;;;;;;5013536;28;19914;-44
2023/08/18 07:30:09;;;;;;;;;;;;;;;;;;5013701;28;20596;-43
2023/08/18 07:32:35;;;;;;;;;;;;;;;;;;5013425;28;19913;-44
2023/08/18 07:35:01;;;;;;;;;;;;;;;;;;5012728;28;19913;-43
2023/08/18 07:37:26;;;;;;;;;;;;;;;;;;5012411;28;19949;-43
2023/08/18 07:39:52;;;;;;;;;;;;;;;;;;5013320;28;19914;-44
2023/08/18 07:42:18;;;;;;;;;;;;;;;;;;5012957;28;19910;-43
2023/08/18 07:44:44;;;;;;;;;;;;;;;;;;5012596;28;19948;-44
2023/08/18 07:47:10;;;;;;;;;;;;;;;;;;5013105;28;19971;-44
2023/08/18 07:49:36;;;;;;;;;;;;;;;;;;5012444;28;20004;-43
2023/08/18 07:52:02;;;;;;;;;;;;;;;;;;5012210;28;19917;-44
2023/08/18 07:54:28;;;;;;;;;;;;;;;;;;5012265;28;19914;-43
2023/08/18 07:56:54;;;;;;;;;;;;;;;;;;5012385;28;19945;-43
2023/08/18 07:59:20;;;;;;;;;;;;;;;;;;5012787;28;19909;-43
2023/08/18 08:01:46;;;;;;;;;;;;;;;;;;5013200;28;19916;-43
2023/08/18 08:04:12;;;;;;;;;;;;;;;;;;5009021;28;20356;-43
2023/08/18 08:06:38;;;;;;;;;;;;;;;;;;5007014;28;19917;-43
2023/08/18 08:09:04;;;;;;;;;;;;;;;;;;5012863;28;19977;-43
2023/08/18 08:11:29;;;;;;;;;;;;;;;;;;5010469;28;20023;-43
2023/08/18 08:13:55;;;;;;;;;;;;;;;;;;5010258;28;20426;-44
2023/08/18 08:16:21;;;;;;;;;;;;;;;;;;5011955;28;19920;-42
2023/08/18 08:18:47;;;;;;;;;;;;;;;;;;5011458;28;19914;-43
2023/08/18 08:21:13;;;;;;;;;;;;;;;;;;5012855;28;20407;-42
2023/08/18 08:23:39;;;;;;;;;;;;;;;;;;5012019;28;19960;-43
2023/08/18 08:26:05;;;;;;;;;;;;;;;;;;5012393;28;19959;-43
2023/08/18 08:28:31;;;;;;;;;;;;;;;;;;5011861;28;19923;-43
2023/08/18 08:30:56;;;;;;;;;;;;;;;;;;5012946;28;19972;-44
2023/08/18 08:33:22;;;;;;;;;;;;;;;;;;5010840;28;19952;-42
2023/08/18 08:35:48;;;;;;;;;;;;;;;;;;5012595;28;19909;-43
2023/08/18 08:38:14;;;;;;;;;;;;;;;;;;5012549;28;19910;-43
2023/08/18 08:40:40;;;;;;;;;;;;;;;;;;5011810;28;19913;-44
2023/08/18 08:43:06;;;;;;;;;;;;;;;;;;5011140;28;19914;-43
2023/08/18 08:45:33;;;;;;;;;;;;;;;;;;5012617;28;20404;-44
2023/08/18 08:47:59;;;;;;;;;;;;;;;;;;5012433;28;19905;-42
2023/08/18 08:50:25;;;;;;;;;;;;;;;;;;5011605;28;19910;-42
2023/08/18 08:52:50;;;;;;;;;;;;;;;;;;5010016;28;19925;-43
2023/08/18 08:55:16;;;;;;;;;;;;;;;;;;5012336;28;19914;-43
2023/08/18 08:57:42;;;;;;;;;;;;;;;;;;5011450;28;19921;-43
2023/08/18 09:00:08;;;;;;;;;;;;;;;;;;5012571;28;19964;-43
2023/08/18 09:02:34;;;;;;;;;;;;;;;;;;5011368;28;19921;-43
2023/08/18 09:05:00;;;;;;;;;;;;;;;;;;5012436;28;19932;-43
2023/08/18 09:07:26;;;;;;;;;;;;;;;;;;5012803;28;19909;-43
2023/08/18 09:09:52;;;;;;;;;;;;;;;;;;5012085;28;20000;-43
2023/08/18 09:12:18;;;;;;;;;;;;;;;;;;5011878;28;19913;-43
2023/08/18 09:14:44;;;;;;;;;;;;;;;;;;5010416;28;19937;-43
2023/08/18 09:17:10;;;;;;;;;;;;;;;;;;5011349;28;20450;-43
2023/08/18 09:19:36;;;;;;;;;;;;;;;;;;5011847;28;19917;-43
2023/08/18 09:22:03;;;;;;;;;;;;;;;;;;5010523;28;19956;-43
2023/08/18 09:24:29;;;;;;;;;;;;;;;;;;5011910;28;19909;-43
2023/08/18 09:26:55;;;;;;;;;;;;;;;;;;5011673;28;19909;-43
2023/08/18 09:29:21;;;;;;;;;;;;;;;;;;5011552;28;20391;-44
2023/08/18 09:31:47;;;;;;;;;;;;;;;;;;5011536;28;19987;-43
2023/08/18 09:34:13;;;;;;;;;;;;;;;;;;5011840;28;19919;-43
2023/08/18 09:36:38;;;;;;;;;;;;;;;;;;5009432;28;19921;-44
2023/08/18 09:39:05;;;;;;;;;;;;;;;;;;5009916;28;19948;-43
2023/08/18 09:41:30;;;;;;;;;;;;;;;;;;5011351;28;19917;-43
2023/08/18 09:43:56;;;;;;;;;;;;;;;;;;5010017;28;19913;-43
2023/08/18 09:46:22;;;;;;;;;;;;;;;;;;5009660;28;19949;-43
2023/08/18 09:48:48;;;;;;;;;;;;;;;;;;5012270;28;19910;-43
2023/08/18 09:51:14;;;;;;;;;;;;;;;;;;5011327;28;19970;-43
2023/08/18 09:53:40;;;;;;;;;;;;;;;;;;5011291;28;19917;-43
2023/08/18 09:56:06;;;;;;;;;;;;;;;;;;5010835;28;19945;-43
2023/08/18 09:58:32;;;;;;;;;;;;;;;;;;5012113;28;20480;-43
2023/08/18 10:00:58;;;;;;;;;;;;;;;;;;5011389;28;20001;-43
2023/08/18 10:03:25;;;;;;;;;;;;;;;;;;5011979;28;19953;-44
2023/08/18 10:05:50;;;;;;;;;;;;;;;;;;5009225;28;19913;-43
2023/08/18 10:08:16;;;;;;;;;;;;;;;;;;5011797;28;19910;-43
2023/08/18 10:10:42;;;;;;;;;;;;;;;;;;5011661;28;19909;-43
2023/08/18 10:13:08;;;;;;;;;;;;;;;;;;5012306;28;19913;-42
2023/08/18 10:15:34;;;;;;;;;;;;;;;;;;5009721;28;19917;-45
2023/08/18 10:18:04;;;;;;;;;;;;;;;;;;5010450;28;19917;-43
2023/08/18 10:20:30;;;;;;;;;;;;;;;;;;5011471;28;19917;-43
2023/08/18 10:22:56;;;;;;;;;;;;;;;;;;5010930;28;20264;-43
2023/08/18 10:25:22;;;;;;;;;;;;;;;;;;5011731;28;19913;-43
2023/08/18 10:27:47;;;;;;;;;;;;;;;;;;5010734;28;19913;-43
2023/08/18 10:30:14;;;;;;;;;;;;;;;;;;5010990;28;19977;-43
2023/08/18 10:32:41;;;;;;;;;;;;;;;;;;5011876;28;19914;-44
2023/08/18 10:35:07;;;;;;;;;;;;;;;;;;5011366;28;19909;-44
2023/08/18 10:37:32;;;;;;;;;;;;;;;;;;5010339;28;19925;-44
2023/08/18 10:39:59;;;;;;;;;;;;;;;;;;5011454;28;19917;-45
2023/08/18 10:42:25;;;;;;;;;;;;;;;;;;5010378;28;19920;-43
2023/08/18 10:44:51;;;;;;;;;;;;;;;;;;5010174;28;20287;-41
2023/08/18 10:47:17;;;;;;;;;;;;;;;;;;5013556;28;19913;-41
2023/08/18 10:49:42;;;;;;;;;;;;;;;;;;5022472;28;20387;-41
2023/08/18 10:52:08;;;;;;;;;;;;;;;;;;5016351;28;19918;-41
2023/08/18 10:54:34;;;;;;;;;;;;;;;;;;5011280;28;19909;-41
2023/08/18 10:57:00;;;;;;;;;;;;;;;;;;5010830;28;19914;-41
2023/08/18 10:59:26;;;;;;;;;;;;;;;;;;5010148;28;19916;-41
2023/08/18 11:01:52;;;;;;;;;;;;;;;;;;5009043;28;19972;-41
2023/08/18 11:04:18;;;;;;;;;;;;;;;;;;5007869;28;19937;-41
2023/08/18 11:06:44;;;;;;;;;;;;;;;;;;5010398;28;19959;-42
2023/08/18 11:09:09;;;;;;;;;;;;;;;;;;5011500;28;20284;-41
2023/08/18 11:11:35;;;;;;;;;;;;;;;;;;5010705;28;19918;-41
2023/08/18 11:14:01;;;;;;;;;;;;;;;;;;5005514;28;20293;-41
2023/08/18 11:16:27;;;;;;;;;;;;;;;;;;5007850;28;20004;-41
2023/08/18 11:18:53;;;;;;;;;;;;;;;;;;5005937;28;19921;-41
2023/08/18 11:21:19;;;;;;;;;;;;;;;;;;5009377;28;19909;-40
2023/08/18 11:23:45;;;;;;;;;;;;;;;;;;5008242;28;19997;-43
2023/08/18 11:26:11;;;;;;;;;;;;;;;;;;5007725;28;20571;-42
2023/08/18 11:28:37;;;;;;;;;;;;;;;;;;5008609;28;19917;-42
2023/08/18 11:31:05;;;;;;;;;;;;;;;;;;5009186;28;19959;-42
2023/08/18 11:33:31;;;;;;;;;;;;;;;;;;5012033;28;19909;-43
2023/08/18 11:35:57;;;;;;;;;;;;;;;;;;5010605;28;20024;-43
2023/08/18 11:38:23;;;;;;;;;;;;;;;;;;5011434;28;19956;-43
2023/08/18 11:40:49;;;;;;;;;;;;;;;;;;5010238;28;19949;-43
2023/08/18 11:43:14;;;;;;;;;;;;;;;;;;5012195;28;19914;-43
2023/08/18 11:45:40;;;;;;;;;;;;;;;;;;5010887;28;19914;-41
2023/08/18 11:48:07;;;;;;;;;;;;;;;;;;5011502;28;19909;-41
2023/08/18 11:50:33;;;;;;;;;;;;;;;;;;5011417;28;20491;-41
2023/08/18 11:52:59;;;;;;;;;;;;;;;;;;5011626;28;20013;-42
2023/08/18 11:55:24;;;;;;;;;;;;;;;;;;5011653;28;19937;-41
2023/08/18 11:57:50;;;;;;;;;;;;;;;;;;5009089;28;19914;-41
2023/08/18 12:00:17;;;;;;;;;;;;;;;;;;5010151;28;20456;-40
2023/08/18 12:02:43;;;;;;;;;;;;;;;;;;5011203;28;19953;-41
2023/08/18 12:05:09;;;;;;;;;;;;;;;;;;5011382;28;20343;-41
2023/08/18 12:07:35;;;;;;;;;;;;;;;;;;5011347;28;19926;-41
2023/08/18 12:10:01;;;;;;;;;;;;;;;;;;5009576;28;20372;-41
2023/08/18 12:12:27;;;;;;;;;;;;;;;;;;5011084;28;19921;-41
2023/08/18 12:14:53;;;;;;;;;;;;;;;;;;5008977;28;20019;-41
2023/08/18 12:17:19;;;;;;;;;;;;;;;;;;5010382;28;20088;-40
2023/08/18 12:19:45;;;;;;;;;;;;;;;;;;5009891;28;19910;-43
2023/08/18 12:22:10;;;;;;;;;;;;;;;;;;5009057;28;20136;-42
2023/08/18 12:24:36;;;;;;;;;;;;;;;;;;5004847;28;19913;-41
2023/08/18 12:27:02;;;;;;;;;;;;;;;;;;5009483;28;19913;-42
2023/08/18 12:29:28;;;;;;;;;;;;;;;;;;5009804;28;19910;-42
2023/08/18 12:31:54;;;;;;;;;;;;;;;;;;5009600;28;19961;-41
2023/08/18 12:34:20;;;;;;;;;;;;;;;;;;5010413;28;19909;-41
2023/08/18 12:36:46;;;;;;;;;;;;;;;;;;5009388;28;20287;-41
2023/08/18 12:39:12;;;;;;;;;;;;;;;;;;5007397;28;19961;-40
2023/08/18 12:41:37;;;;;;;;;;;;;;;;;;5007157;28;19913;-40
2023/08/18 12:44:08;;;;;;;;;;;;;;;;;;5008548;28;19924;-41
2023/08/18 12:46:34;;;;;;;;;;;;;;;;;;5007525;28;20364;-43
2023/08/18 12:49:01;;;;;;;;;;;;;;;;;;5008008;28;19928;-40
2023/08/18 12:51:27;;;;;;;;;;;;;;;;;;5009303;28;20280;-41
2023/08/18 12:53:52;;;;;;;;;;;;;;;;;;5008481;28;19918;-42
2023/08/18 12:56:18;;;;;;;;;;;;;;;;;;5009342;28;19956;-41
2023/08/18 12:58:45;;;;;;;;;;;;;;;;;;5009435;28;20033;-41
2023/08/18 13:01:12;;;;;;;;;;;;;;;;;;5008985;28;20308;-41
2023/08/18 13:03:38;;;;;;;;;;;;;;;;;;5008267;28;19917;-41
2023/08/18 13:06:04;;;;;;;;;;;;;;;;;;5008018;28;19913;-43
2023/08/18 13:08:30;;;;;;;;;;;;;;;;;;5003907;28;19910;-42
2023/08/18 13:10:56;;;;;;;;;;;;;;;;;;5004715;28;19918;-41
2023/08/18 13:13:21;;;;;;;;;;;;;;;;;;5008081;28;19909;-41
2023/08/18 13:15:47;;;;;;;;;;;;;;;;;;5008089;28;20069;-42
2023/08/18 13:18:13;;;;;;;;;;;;;;;;;;5007683;28;19918;-41
2023/08/18 13:20:39;;;;;;;;;;;;;;;;;;5007825;28;19983;-41
2023/08/18 13:23:06;;;;;;;;;;;;;;;;;;5009071;28;19909;-41
2023/08/18 13:25:32;;;;;;;;;;;;;;;;;;5007942;28;20319;-40
2023/08/18 13:27:58;;;;;;;;;;;;;;;;;;4997849;28;19971;-42
2023/08/18 13:30:24;;;;;;;;;;;;;;;;;;5008410;28;19910;-42
2023/08/18 13:32:50;;;;;;;;;;;;;;;;;;5008666;28;20430;-42
2023/08/18 13:35:16;;;;;;;;;;;;;;;;;;5008847;28;19914;-40
2023/08/18 13:37:42;;;;;;;;;;;;;;;;;;5008770;28;19945;-41
2023/08/18 13:40:08;;;;;;;;;;;;;;;;;;5008651;28;20137;-41
2023/08/18 13:42:34;;;;;;;;;;;;;;;;;;5008317;28;19912;-40
2023/08/18 13:45:00;;;;;;;;;;;;;;;;;;5008703;28;19909;-41
2023/08/18 13:47:26;;;;;;;;;;;;;;;;;;5007961;28;19909;-41
2023/08/18 13:49:52;;;;;;;;;;;;;;;;;;5007548;28;19914;-43
2023/08/18 13:52:18;;;;;;;;;;;;;;;;;;5007278;28;20300;-41
2023/08/18 13:54:44;;;;;;;;;;;;;;;;;;5000825;28;19913;-41
2023/08/18 13:57:10;;;;;;;;;;;;;;;;;;4991159;28;19910;-41
2023/08/18 13:59:36;;;;;;;;;;;;;;;;;;4998348;28;19909;-41
2023/08/18 14:02:02;;;;;;;;;;;;;;;;;;5009060;28;19910;-42
2023/08/18 14:04:28;;;;;;;;;;;;;;;;;;5006893;28;19936;-40
2023/08/18 14:06:56;;;;;;;;;;;;;;;;;;5008267;28;20636;-41
2023/08/18 14:09:22;;;;;;;;;;;;;;;;;;5009243;28;19910;-41
2023/08/18 14:11:48;;;;;;;;;;;;;;;;;;5007290;28;19926;-41
2023/08/18 14:14:16;;;;;;;;;;;;;;;;;;5008487;28;20216;-41
2023/08/18 14:16:41;;;;;;;;;;;;;;;;;;5009005;28;19917;-42
2023/08/18 14:19:08;;;;;;;;;;;;;;;;;;5009322;28;19916;-41
2023/08/18 14:21:34;;;;;;;;;;;;;;;;;;5006248;28;19957;-41
2023/08/18 14:23:59;;;;;;;;;;;;;;;;;;5009164;28;19952;-41
2023/08/18 14:26:25;;;;;;;;;;;;;;;;;;5008846;28;19933;-42
2023/08/18 14:28:51;;;;;;;;;;;;;;;;;;5008985;28;19909;-41
2023/08/18 14:31:17;;;;;;;;;;;;;;;;;;5009059;28;19957;-41
2023/08/18 14:33:43;;;;;;;;;;;;;;;;;;5009100;28;19913;-41
2023/08/18 14:36:09;;;;;;;;;;;;;;;;;;5008927;28;19910;-42
2023/08/18 14:38:36;;;;;;;;;;;;;;;;;;5009714;28;20299;-40
2023/08/18 14:41:04;;;;;;;;;;;;;;;;;;5009427;28;19910;-41
2023/08/18 14:43:30;;;;;;;;;;;;;;;;;;5008798;28;19944;-41
2023/08/18 14:45:56;;;;;;;;;;;;;;;;;;5009046;28;20813;-41
2023/08/18 14:48:22;;;;;;;;;;;;;;;;;;5008898;28;19910;-42
2023/08/18 14:50:48;;;;;;;;;;;;;;;;;;5009144;28;19909;-42
2023/08/18 14:53:14;;;;;;;;;;;;;;;;;;5008816;28;19914;-41
2023/08/18 14:55:40;;;;;;;;;;;;;;;;;;5008786;28;19909;-41
2023/08/18 14:58:06;;;;;;;;;;;;;;;;;;5009244;28;20351;-41
2023/08/18 15:00:34;;;;;;;;;;;;;;;;;;5007058;28;19931;-41
2023/08/18 15:03:00;;;;;;;;;;;;;;;;;;5007623;28;19909;-41
2023/08/18 15:05:25;;;;;;;;;;;;;;;;;;5009376;28;19921;-41
2023/08/18 15:07:51;;;;;;;;;;;;;;;;;;5012081;28;19920;-42
2023/08/18 15:10:18;;;;;;;;;;;;;;;;;;5002503;28;20355;-41
2023/08/18 15:12:44;;;;;;;;;;;;;;;;;;5011414;28;20380;-41
2023/08/18 15:15:10;;;;;;;;;;;;;;;;;;5011465;28;19914;-42
2023/08/18 15:17:36;;;;;;;;;;;;;;;;;;5012104;28;19918;-43
2023/08/18 15:20:05;;;;;;;;;;;;;;;;;;4993849;28;19910;-45
2023/08/18 15:22:31;;;;;;;;;;;;;;;;;;5009579;28;20385;-42
2023/08/18 15:24:57;;;;;;;;;;;;;;;;;;5011398;28;19914;-42
2023/08/18 15:27:22;;;;;;;;;;;;;;;;;;5011915;28;19914;-42
2023/08/18 15:29:48;;;;;;;;;;;;;;;;;;5012153;28;19910;-43
2023/08/18 15:32:15;;;;;;;;;;;;;;;;;;5012784;28;19968;-44
2023/08/18 15:34:40;;;;;;;;;;;;;;;;;;5011906;28;19920;-42
2023/08/18 15:37:06;;;;;;;;;;;;;;;;;;5011929;28;19910;-42
2023/08/18 15:39:32;;;;;;;;;;;;;;;;;;5011466;28;19909;-44
2023/08/18 15:41:58;;;;;;;;;;;;;;;;;;5011653;28;20003;-41
2023/08/18 15:44:24;;;;;;;;;;;;;;;;;;5011682;28;19909;-43
2023/08/18 15:46:50;;;;;;;;;;;;;;;;;;5011784;28;19995;-45
2023/08/18 15:49:16;;;;;;;;;;;;;;;;;;5012196;28;19913;-44
2023/08/18 15:51:42;;;;;;;;;;;;;;;;;;5011589;28;19913;-44
2023/08/18 15:54:08;;;;;;;;;;;;;;;;;;5011476;28;20331;-42
2023/08/18 15:56:34;;;;;;;;;;;;;;;;;;5011575;28;19909;-42
2023/08/18 15:59:01;;;;;;;;;;;;;;;;;;5009836;28;19909;-41
2023/08/18 16:01:27;;;;;;;;;;;;;;;;;;5011494;28;19916;-46
2023/08/18 16:03:52;;;;;;;;;;;;;;;;;;5005843;28;19910;-44
2023/08/18 16:06:18;;;;;;;;;;;;;;;;;;4996264;28;20008;-42
2023/08/18 16:08:45;;;;;;;;;;;;;;;;;;5006263;28;20292;-43
2023/08/18 16:11:11;;;;;;;;;;;;;;;;;;5010588;28;19917;-43
2023/08/18 16:13:37;;;;;;;;;;;;;;;;;;5010987;28;20291;-46
2023/08/18 16:16:03;;;;;;;;;;;;;;;;;;5009936;28;19921;-41
2023/08/18 16:18:29;;;;;;;;;;;;;;;;;;5011189;28;20336;-42
2023/08/18 16:20:56;;;;;;;;;;;;;;;;;;5011363;28;19906;-43
2023/08/18 16:23:21;;;;;;;;;;;;;;;;;;5008919;28;19956;-42
2023/08/18 16:25:47;;;;;;;;;;;;;;;;;;5011666;28;19941;-42
2023/08/18 16:28:13;;;;;;;;;;;;;;;;;;5010479;28;19921;-44
2023/08/18 16:30:40;;;;;;;;;;;;;;;;;;5009814;28;19913;-42
2023/08/18 16:33:05;;;;;;;;;;;;;;;;;;5009057;28;19921;-41
2023/08/18 16:35:31;;;;;;;;;;;;;;;;;;5008517;28;19913;-43
2023/08/18 16:37:57;;;;;;;;;;;;;;;;;;5010259;28;20364;-46
2023/08/18 16:40:23;;;;;;;;;;;;;;;;;;5008706;28;19940;-42
2023/08/18 16:42:50;;;;;;;;;;;;;;;;;;5011052;28;19963;-43
2023/08/18 16:45:16;;;;;;;;;;;;;;;;;;5009651;28;19917;-43
2023/08/18 16:47:42;;;;;;;;;;;;;;;;;;5005797;28;20008;-43
2023/08/18 16:50:08;;;;;;;;;;;;;;;;;;5001037;28;19921;-43
2023/08/18 16:52:34;;;;;;;;;;;;;;;;;;5008444;28;19975;-44
2023/08/18 16:54:59;;;;;;;;;;;;;;;;;;5009367;28;19916;-43
2023/08/18 16:57:25;;;;;;;;;;;;;;;;;;5008985;28;19913;-43
2023/08/18 16:59:51;;;;;;;;;;;;;;;;;;5006469;28;19936;-43
2023/08/18 17:02:17;;;;;;;;;;;;;;;;;;5008370;28;20085;-43
2023/08/18 17:04:43;;;;;;;;;;;;;;;;;;5009748;28;19913;-43
2023/08/18 17:07:10;;;;;;;;;;;;;;;;;;5009018;28;19909;-43
2023/08/18 17:09:36;;;;;;;;;;;;;;;;;;4996778;28;19917;-44
2023/08/18 17:12:04;;;;;;;;;;;;;;;;;;5007728;28;19913;-44
2023/08/18 17:14:30;;;;;;;;;;;;;;;;;;5004830;28;19913;-43
2023/08/18 17:16:57;;;;;;;;;;;;;;;;;;5004087;28;20315;-43
2023/08/18 17:19:23;;;;;;;;;;;;;;;;;;5003326;28;20304;-44
2023/08/18 17:21:48;;;;;;;;;;;;;;;;;;5007453;28;19956;-43
2023/08/18 17:24:14;;;;;;;;;;;;;;;;;;5005087;28;19918;-43
2023/08/18 17:26:40;;;;;;;;;;;;;;;;;;5001034;28;20475;-43
2023/08/18 17:29:06;;;;;;;;;;;;;;;;;;4987207;28;19909;-43
2023/08/18 17:31:35;;;;;;;;;;;;;;;;;;4996161;28;20399;-45
2023/08/18 17:34:01;;;;;;;;;;;;;;;;;;5000458;28;19960;-43
2023/08/18 17:36:27;;;;;;;;;;;;;;;;;;5005217;28;19914;-48
2023/08/18 17:38:53;;;;;;;;;;;;;;;;;;5005141;28;20012;-44
2023/08/18 17:41:18;;;;;;;;;;;;;;;;;;5006928;28;19914;-44
2023/08/18 17:43:44;;;;;;;;;;;;;;;;;;5005581;28;19914;-45
2023/08/18 17:46:10;;;;;;;;;;;;;;;;;;5006641;28;19910;-47
2023/08/18 17:48:36;;;;;;;;;;;;;;;;;;5005418;28;19914;-47
2023/08/18 17:51:02;;;;;;;;;;;;;;;;;;5004974;28;19956;-44
2023/08/18 17:53:31;;;;;;;;;;;;;;;;;;5004088;28;19956;-45
2023/08/18 17:55:56;;;;;;;;;;;;;;;;;;5006094;28;20000;-45
2023/08/18 17:58:22;;;;;;;;;;;;;;;;;;5005259;28;20003;-44
2023/08/18 18:00:48;;;;;;;;;;;;;;;;;;5007683;28;19935;-45
2023/08/18 18:03:14;;;;;;;;;;;;;;;;;;5006169;28;19909;-47
2023/08/18 18:05:40;;;;;;;;;;;;;;;;;;5006753;28;19944;-43
2023/08/18 18:08:08;;;;;;;;;;;;;;;;;;5007053;28;19910;-46
2023/08/18 18:10:34;;;;;;;;;;;;;;;;;;5006712;28;19925;-45
2023/08/18 18:13:02;;;;;;;;;;;;;;;;;;5006849;28;19914;-43
2023/08/18 18:15:28;;;;;;;;;;;;;;;;;;5002692;28;19948;-44
2023/08/18 18:17:54;;;;;;;;;;;;;;;;;;5003514;28;19968;-46
2023/08/18 18:20:20;;;;;;;;;;;;;;;;;;4999418;28;20047;-43
2023/08/18 18:22:46;;;;;;;;;;;;;;;;;;5003582;28;20004;-46
2023/08/18 18:25:12;;;;;;;;;;;;;;;;;;5004531;28;19913;-45
2023/08/18 18:27:38;;;;;;;;;;;;;;;;;;5004506;28;19921;-44
2023/08/18 18:30:04;;;;;;;;;;;;;;;;;;5004440;28;20303;-44
2023/08/18 18:32:30;;;;;;;;;;;;;;;;;;5003818;28;20289;-45
2023/08/18 18:34:56;;;;;;;;;;;;;;;;;;5003194;28;19918;-47
2023/08/18 18:37:23;;;;;;;;;;;;;;;;;;5005143;28;20473;-45
2023/08/18 18:39:48;;;;;;;;;;;;;;;;;;5009040;28;19909;-44
2023/08/18 18:42:14;;;;;;;;;;;;;;;;;;5006731;28;19921;-44
2023/08/18 18:44:40;;;;;;;;;;;;;;;;;;5008941;28;20253;-44
2023/08/18 18:47:06;;;;;;;;;;;;;;;;;;5009934;28;20388;-43
2023/08/18 18:49:32;;;;;;;;;;;;;;;;;;5010347;28;20000;-44
2023/08/18 18:51:58;;;;;;;;;;;;;;;;;;5007054;28;19922;-45
2023/08/18 18:54:24;;;;;;;;;;;;;;;;;;5010367;28;20439;-45
2023/08/18 18:56:50;;;;;;;;;;;;;;;;;;5009914;28;19913;-44
2023/08/18 18:59:16;;;;;;;;;;;;;;;;;;5010427;28;19920;-45
2023/08/18 19:01:42;;;;;;;;;;;;;;;;;;5009304;28;20444;-44
2023/08/18 19:04:08;;;;;;;;;;;;;;;;;;5007497;28;19973;-44
2023/08/18 19:06:34;;;;;;;;;;;;;;;;;;5008106;28;19913;-47
2023/08/18 19:09:00;;;;;;;;;;;;;;;;;;5008119;28;19913;-44
2023/08/18 19:11:26;;;;;;;;;;;;;;;;;;5009108;28;19914;-47
2023/08/18 19:13:51;;;;;;;;;;;;;;;;;;5008609;28;19926;-44
2023/08/18 19:16:17;;;;;;;;;;;;;;;;;;5005713;28;19924;-44
2023/08/18 19:18:43;;;;;;;;;;;;;;;;;;5010057;28;19963;-44
2023/08/18 19:21:09;;;;;;;;;;;;;;;;;;5007566;28;20380;-45
2023/08/18 19:23:35;;;;;;;;;;;;;;;;;;5008185;28;19917;-46
2023/08/18 19:26:01;;;;;;;;;;;;;;;;;;5008843;28;19913;-47
2023/08/18 19:28:33;;;;;;;;;;;;;;;;;;5007637;28;19913;-46
2023/08/18 19:30:59;;;;;;;;;;;;;;;;;;5007797;28;19921;-44
2023/08/18 19:33:25;;;;;;;;;;;;;;;;;;5008397;28;20323;-44
2023/08/18 19:35:51;;;;;;;;;;;;;;;;;;5010514;28;20004;-46
2023/08/18 19:38:17;;;;;;;;;;;;;;;;;;5007831;28;20485;-43
2023/08/18 19:40:43;;;;;;;;;;;;;;;;;;5008509;28;19921;-44
2023/08/18 19:43:09;;;;;;;;;;;;;;;;;;5006815;28;19913;-48
2023/08/18 19:45:35;;;;;;;;;;;;;;;;;;5006798;28;20076;-45
2023/08/18 19:48:00;;;;;;;;;;;;;;;;;;5008345;28;19921;-43
2023/08/18 19:50:28;;;;;;;;;;;;;;;;;;5006672;28;19984;-44
2023/08/18 19:52:54;;;;;;;;;;;;;;;;;;5006100;28;19967;-43
2023/08/18 19:55:20;;;;;;;;;;;;;;;;;;5007835;28;20366;-44
2023/08/18 19:57:46;;;;;;;;;;;;;;;;;;5007372;28;19914;-44
2023/08/18 20:00:13;;;;;;;;;;;;;;;;;;4995469;28;19913;-45
2023/08/18 20:02:39;;;;;;;;;;;;;;;;;;5006329;28;20276;-43
2023/08/18 20:05:04;;;;;;;;;;;;;;;;;;5008792;28;19972;-45
2023/08/18 20:07:32;;;;;;;;;;;;;;;;;;5008032;28;19917;-45
2023/08/18 20:09:58;;;;;;;;;;;;;;;;;;5008592;28;19914;-44
2023/08/18 20:12:23;;;;;;;;;;;;;;;;;;5005602;28;20308;-43
2023/08/18 20:14:49;;;;;;;;;;;;;;;;;;5004948;28;19920;-42
2023/08/18 20:17:15;;;;;;;;;;;;;;;;;;5006233;28;19995;-43
2023/08/18 20:19:41;;;;;;;;;;;;;;;;;;5009189;28;19916;-44
2023/08/18 20:22:07;;;;;;;;;;;;;;;;;;5007813;28;19913;-43
2023/08/18 20:24:33;;;;;;;;;;;;;;;;;;5006975;28;20139;-43
2023/08/18 20:26:59;;;;;;;;;;;;;;;;;;5007511;28;19957;-45
2023/08/18 20:29:25;;;;;;;;;;;;;;;;;;5005460;28;19913;-42
2023/08/18 20:31:51;;;;;;;;;;;;;;;;;;5007004;28;19921;-44
2023/08/18 20:34:17;;;;;;;;;;;;;;;;;;5007602;28;19913;-44
2023/08/18 20:36:43;;;;;;;;;;;;;;;;;;5008681;28;19913;-44
2023/08/18 20:39:09;;;;;;;;;;;;;;;;;;5007150;28;20012;-47
2023/08/18 20:41:35;;;;;;;;;;;;;;;;;;5007728;28;19914;-44
2023/08/18 20:44:01;;;;;;;;;;;;;;;;;;5005788;28;19941;-43
2023/08/18 20:46:27;;;;;;;;;;;;;;;;;;5007922;28;19910;-44
2023/08/18 20:48:52;;;;;;;;;;;;;;;;;;5008224;28;20409;-44
2023/08/18 20:51:19;;;;;;;;;;;;;;;;;;5007995;28;19915;-43
2023/08/18 20:53:44;;;;;;;;;;;;;;;;;;5008500;28;19914;-43
2023/08/18 20:56:10;;;;;;;;;;;;;;;;;;5007137;28;20355;-46
2023/08/18 20:58:36;;;;;;;;;;;;;;;;;;5006148;28;19920;-43
2023/08/18 21:01:02;;;;;;;;;;;;;;;;;;5008289;28;19917;-46
2023/08/18 21:03:28;;;;;;;;;;;;;;;;;;5005531;28;19962;-44
2023/08/18 21:05:54;;;;;;;;;;;;;;;;;;5006225;28;19921;-44
2023/08/18 21:08:20;;;;;;;;;;;;;;;;;;5004499;28;20296;-43
2023/08/18 21:10:46;;;;;;;;;;;;;;;;;;5009248;28;20075;-44
2023/08/18 21:13:12;;;;;;;;;;;;;;;;;;5006936;28;19917;-47
2023/08/18 21:15:38;;;;;;;;;;;;;;;;;;5006829;28;19981;-46
2023/08/18 21:18:03;;;;;;;;;;;;;;;;;;5006693;28;20392;-46
2023/08/18 21:20:29;;;;;;;;;;;;;;;;;;5007711;28;19913;-45
2023/08/18 21:22:55;;;;;;;;;;;;;;;;;;5007968;28;19917;-45
2023/08/18 21:25:21;;;;;;;;;;;;;;;;;;5007461;28;19913;-44
2023/08/18 21:27:47;;;;;;;;;;;;;;;;;;5005424;28;20384;-42
2023/08/18 21:30:18;;;;;;;;;;;;;;;;;;5007793;28;19960;-42
2023/08/18 21:32:43;;;;;;;;;;;;;;;;;;5005492;28;19928;-43
2023/08/18 21:35:09;;;;;;;;;;;;;;;;;;5007550;28;19910;-44
2023/08/18 21:37:35;;;;;;;;;;;;;;;;;;5004518;28;19913;-43
2023/08/18 21:40:04;;;;;;;;;;;;;;;;;;5003148;28;19956;-43
2023/08/18 21:42:29;;;;;;;;;;;;;;;;;;5006988;28;20454;-47
2023/08/18 21:44:55;;;;;;;;;;;;;;;;;;5007616;28;20087;-43
2023/08/18 21:47:21;;;;;;;;;;;;;;;;;;5006774;28;20213;-43
2023/08/18 21:49:47;;;;;;;;;;;;;;;;;;5007786;28;19952;-46
2023/08/18 21:52:13;;;;;;;;;;;;;;;;;;5008273;28;20426;-44